MMTP

Details ICAO MMTP (TAP)
Name Tapachula Intl
Region Mexico
Timezone America/Mexico_City (UTC-6.0)
Plans Departing 29
Arriving 33
Stats Elevation 97 ft / 30 m (AMSL)
Location 14.794300° -92.370000°
Runways 1
Magnetic Variation 1.847° E
Sunrise 2018-12-19 12:30:25 UTC / 2018-12-19 06:30:25 Local
Sunset 2018-12-19 23:45:26 UTC / 2018-12-19 17:45:26 Local
Advertisement - Login to hide

Runways

ID Width Length Bearing (true/mag) Surface Threshold Overrun Markings Lighting
05 148 ft / 45 m 6,594 ft / 2,010 m 55.50° / 53.65° ASPHALT 0 ft / 0 m 203 ft / 62 m APP EDGE THRESHOLD
23 148 ft / 45 m 6,594 ft / 2,010 m 235.51° / 233.66° ASPHALT 0 ft / 0 m 190 ft / 58 m APP EDGE THRESHOLD

Map

Weather


0- 5 10 15 20 25 30 35+ Temperature / °C

Clouds and Precipitation
Forecast for 2018-12-19 12:00 UTC. Updated 36 minutes ago

Ground ~20,000 ft ~40,000 ft Winds

METAR

MMTP 190858Z RTD 00000KT 8SM SCT160 22/21 A2987 RMK SLP140 57024 955 8/060

TAF

TAF MMTP 190520Z 1906/2012 10006KT 6SM -RA BKN120 FM191000 00000KT P6SM SCT100 FM191800 25008KT P6SM SCT025 SCT090 BECMG 2005/2007 03004KT

Frequencies

Tower 118.20 MHz
Warning: Do not use this data for real-world aviation or navigation. No guarantee of current accuracy is given.